createdAt,value
2017-10-22T00:00:34.391Z,977.3
2017-10-22T00:01:36.395Z,977.2
2017-10-22T00:02:38.403Z,977.3
2017-10-22T00:03:40.388Z,977.3
2017-10-22T00:04:42.365Z,977.3
2017-10-22T00:05:44.354Z,977.3
2017-10-22T00:06:46.342Z,977.3
2017-10-22T00:07:48.412Z,977.3
2017-10-22T00:08:50.418Z,977.4
2017-10-22T00:09:52.390Z,977.3
2017-10-22T00:10:54.377Z,977.4
2017-10-22T00:11:56.269Z,977.3
2017-10-22T00:12:58.180Z,977.3
2017-10-22T00:14:00.073Z,977.3
2017-10-22T00:15:02.053Z,977.3
2017-10-22T00:16:04.070Z,977.3
2017-10-22T00:17:06.067Z,977.4
2017-10-22T00:18:07.995Z,977.3
2017-10-22T00:19:10.142Z,977.3
2017-10-22T00:20:12.438Z,977.3
2017-10-22T00:21:14.492Z,977.4
2017-10-22T00:22:16.448Z,977.4
2017-10-22T00:23:18.458Z,977.3
2017-10-22T00:24:20.449Z,977.4
2017-10-22T00:25:22.437Z,977.3
2017-10-22T00:26:24.344Z,977.5
2017-10-22T00:27:26.338Z,977.4
2017-10-22T00:28:28.264Z,977.3
2017-10-22T00:29:30.201Z,977.4
2017-10-22T00:30:32.399Z,977.3
2017-10-22T00:31:34.325Z,977.2
2017-10-22T00:32:36.182Z,977.3
2017-10-22T00:33:38.205Z,977.3
2017-10-22T00:34:40.152Z,977.2
2017-10-22T00:35:42.190Z,977.3
2017-10-22T00:36:44.184Z,977.3
2017-10-22T00:37:46.355Z,977.3
2017-10-22T00:38:48.292Z,977.3
2017-10-22T00:39:50.239Z,977.3
2017-10-22T00:40:52.252Z,977.2
2017-10-22T00:41:54.127Z,977.3
2017-10-22T00:42:56.202Z,977.2
2017-10-22T00:43:58.183Z,977.3
2017-10-22T00:45:00.199Z,977.3
2017-10-22T00:46:02.329Z,977.2
2017-10-22T00:47:04.193Z,977.2
2017-10-22T00:48:06.117Z,977.3
2017-10-22T00:49:08.095Z,977.1
2017-10-22T00:50:09.991Z,977.1
2017-10-22T00:51:12.039Z,977.2
2017-10-22T00:52:13.966Z,977.2
2017-10-22T00:53:15.926Z,977.2
2017-10-22T00:54:17.869Z,977.2
2017-10-22T00:55:19.825Z,977.2
2017-10-22T00:56:21.832Z,977.2
2017-10-22T00:57:23.815Z,977.2
2017-10-22T00:58:25.751Z,977.1
2017-10-22T00:59:27.641Z,977.1
2017-10-22T01:00:29.513Z,977.1
2017-10-22T01:01:31.512Z,977
2017-10-22T01:02:33.409Z,977.1
2017-10-22T01:03:35.303Z,977.1
2017-10-22T01:04:37.192Z,977.1
2017-10-22T01:05:39.141Z,977.1
2017-10-22T01:06:41.166Z,977.1
2017-10-22T01:07:43.077Z,977.1
2017-10-22T01:08:44.994Z,977.1
2017-10-22T01:09:46.954Z,977.1
2017-10-22T01:10:48.852Z,977.1
2017-10-22T01:11:50.790Z,977.1
2017-10-22T01:12:52.724Z,977.2
2017-10-22T01:13:54.670Z,977.1
2017-10-22T01:14:56.645Z,977.1
2017-10-22T01:15:58.551Z,977.1
2017-10-22T01:17:00.561Z,977.2
2017-10-22T01:18:02.463Z,977.1
2017-10-22T01:19:04.384Z,977.1
2017-10-22T01:20:06.421Z,977
2017-10-22T01:21:08.379Z,977
2017-10-22T01:22:10.391Z,976.9
2017-10-22T01:23:12.368Z,977
2017-10-22T01:24:14.294Z,976.9
2017-10-22T01:25:16.257Z,976.8
2017-10-22T01:26:18.235Z,976.8
2017-10-22T01:27:20.192Z,976.7
2017-10-22T01:28:22.085Z,976.8
2017-10-22T01:29:23.935Z,976.8
2017-10-22T01:30:26.152Z,976.8
2017-10-22T01:31:28.153Z,976.8
2017-10-22T01:32:30.094Z,976.8
2017-10-22T01:33:32.064Z,976.8
2017-10-22T01:34:33.972Z,976.8
2017-10-22T01:35:35.975Z,976.8
2017-10-22T01:36:37.893Z,976.9
2017-10-22T01:37:39.850Z,976.9
2017-10-22T01:38:41.910Z,976.9
2017-10-22T01:39:43.797Z,976.9
2017-10-22T01:40:45.798Z,976.9
2017-10-22T01:41:47.820Z,976.9
2017-10-22T01:42:49.755Z,976.9
2017-10-22T01:43:51.662Z,976.8
2017-10-22T01:44:53.675Z,976.9
2017-10-22T01:45:55.751Z,976.8
2017-10-22T01:46:57.617Z,976.7
2017-10-22T01:47:59.555Z,976.8
2017-10-22T01:49:01.480Z,976.8
2017-10-22T01:50:03.363Z,976.8
2017-10-22T01:51:06.310Z,976.8
2017-10-22T01:52:08.294Z,976.8
2017-10-22T01:53:10.320Z,976.7
2017-10-22T01:54:12.344Z,976.7
2017-10-22T01:55:14.300Z,976.8
2017-10-22T01:56:16.295Z,976.7
2017-10-22T01:57:18.228Z,976.8
2017-10-22T01:58:20.142Z,976.9
2017-10-22T01:59:22.208Z,976.8
2017-10-22T02:00:24.053Z,976.8
2017-10-22T02:01:25.995Z,976.9
2017-10-22T02:02:27.942Z,976.9
2017-10-22T02:03:29.862Z,976.8
2017-10-22T02:04:31.754Z,976.8
2017-10-22T02:05:33.664Z,976.8
2017-10-22T02:06:35.572Z,976.8
2017-10-22T02:07:37.531Z,976.7
2017-10-22T02:08:39.830Z,976.7
2017-10-22T02:09:41.825Z,976.8
2017-10-22T02:10:43.703Z,976.8
2017-10-22T02:11:45.632Z,976.8
2017-10-22T02:12:47.625Z,976.6
2017-10-22T02:13:49.610Z,976.6
2017-10-22T02:14:51.571Z,976.6
2017-10-22T02:15:53.490Z,976.7
2017-10-22T02:16:55.429Z,976.7
2017-10-22T02:17:57.436Z,976.7
2017-10-22T02:18:59.591Z,976.7
2017-10-22T02:20:01.614Z,976.8
2017-10-22T02:21:03.707Z,976.7
2017-10-22T02:22:05.764Z,977
2017-10-22T02:23:07.689Z,976.8
2017-10-22T02:24:09.684Z,976.8
2017-10-22T02:25:11.593Z,976.8
2017-10-22T02:26:13.482Z,976.8
2017-10-22T02:27:15.416Z,976.9
2017-10-22T02:28:17.478Z,976.8
2017-10-22T02:29:19.383Z,976.8
2017-10-22T02:30:21.313Z,976.8
2017-10-22T02:31:23.216Z,976.8
2017-10-22T02:32:25.081Z,976.8
2017-10-22T02:33:26.998Z,976.8
2017-10-22T02:34:28.878Z,976.8
2017-10-22T02:35:30.746Z,976.8
2017-10-22T02:36:32.618Z,976.8
2017-10-22T02:37:34.556Z,976.8
2017-10-22T02:38:36.448Z,976.8
2017-10-22T02:39:38.387Z,976.8
2017-10-22T02:40:40.354Z,976.9
2017-10-22T02:41:42.188Z,976.9
2017-10-22T02:42:44.096Z,976.8
2017-10-22T02:43:46.019Z,976.8
2017-10-22T02:44:48.025Z,976.9
2017-10-22T02:45:49.991Z,976.9
2017-10-22T02:46:51.848Z,976.9
2017-10-22T02:47:53.930Z,976.9
2017-10-22T02:48:55.902Z,976.9
2017-10-22T02:49:58.091Z,976.9
2017-10-22T02:51:00.078Z,976.9
2017-10-22T02:52:02.118Z,976.8
2017-10-22T02:53:04.094Z,976.7
2017-10-22T02:54:06.025Z,976.8
2017-10-22T02:55:08.317Z,976.7
2017-10-22T02:56:10.244Z,976.7
2017-10-22T02:57:12.126Z,976.7
2017-10-22T02:58:13.993Z,976.6
2017-10-22T02:59:15.878Z,976.7
2017-10-22T03:00:18.243Z,976.6
2017-10-22T03:01:20.277Z,976.7
2017-10-22T03:02:22.146Z,976.7
2017-10-22T03:03:24.077Z,976.7
2017-10-22T03:04:26.019Z,976.7
2017-10-22T03:05:28.239Z,976.7
2017-10-22T03:06:30.156Z,976.7
2017-10-22T03:07:32.041Z,976.7
2017-10-22T03:08:33.991Z,976.7
2017-10-22T03:09:35.916Z,976.6
2017-10-22T03:10:37.923Z,976.7
2017-10-22T03:11:39.805Z,976.8
2017-10-22T03:12:41.771Z,976.7
2017-10-22T03:13:43.700Z,976.7
2017-10-22T03:14:45.573Z,976.7
2017-10-22T03:15:47.515Z,976.8
2017-10-22T03:16:49.367Z,976.7
2017-10-22T03:17:51.312Z,976.7
2017-10-22T03:18:53.218Z,976.6
2017-10-22T03:19:55.147Z,976.6
2017-10-22T03:20:57.100Z,976.7
2017-10-22T03:21:59.045Z,976.6
2017-10-22T03:23:00.989Z,976.7
2017-10-22T03:24:02.930Z,976.6
2017-10-22T03:25:04.817Z,976.7
2017-10-22T03:26:06.932Z,976.6
2017-10-22T03:27:08.796Z,976.5
2017-10-22T03:28:10.756Z,976.6
2017-10-22T03:29:12.705Z,976.5
2017-10-22T03:30:14.578Z,976.6
2017-10-22T03:31:16.540Z,976.5
2017-10-22T03:32:18.435Z,976.6
2017-10-22T03:33:20.425Z,976.6
2017-10-22T03:34:22.305Z,976.7
2017-10-22T03:35:24.207Z,976.6
2017-10-22T03:36:26.089Z,976.6
2017-10-22T03:37:28.034Z,976.6
2017-10-22T03:38:29.911Z,976.6
2017-10-22T03:39:31.865Z,976.6
2017-10-22T03:40:33.714Z,976.6
2017-10-22T03:41:35.915Z,976.6
2017-10-22T03:42:37.879Z,976.5
2017-10-22T03:43:39.828Z,976.6
2017-10-22T03:44:41.776Z,976.5
2017-10-22T03:45:43.696Z,976.6
2017-10-22T03:46:45.641Z,976.7
2017-10-22T03:47:47.586Z,976.5
2017-10-22T03:48:49.507Z,976.5
2017-10-22T03:49:51.712Z,976.6
2017-10-22T03:50:53.644Z,976.6
2017-10-22T03:51:55.639Z,976.5
2017-10-22T03:52:57.544Z,976.5
2017-10-22T03:53:59.432Z,976.5
2017-10-22T03:55:01.455Z,976.4
2017-10-22T03:56:03.400Z,976.5
2017-10-22T03:57:05.397Z,976.5
2017-10-22T03:58:07.301Z,976.5
2017-10-22T03:59:09.256Z,976.5
2017-10-22T04:00:11.192Z,976.5
2017-10-22T04:01:13.135Z,976.6
2017-10-22T04:02:15.105Z,976.7
2017-10-22T04:03:17.013Z,976.6
2017-10-22T04:04:18.957Z,976.7
2017-10-22T04:05:20.877Z,976.7
2017-10-22T04:06:22.820Z,976.7
2017-10-22T04:07:25.051Z,976.7
2017-10-22T04:08:26.912Z,976.7
2017-10-22T04:09:28.833Z,976.7
2017-10-22T04:10:30.727Z,976.6
2017-10-22T04:11:32.627Z,976.7
2017-10-22T04:12:34.858Z,976.7
2017-10-22T04:13:36.758Z,976.7
2017-10-22T04:14:38.582Z,976.7
2017-10-22T04:15:40.472Z,976.7
2017-10-22T04:16:42.405Z,976.5
2017-10-22T04:17:44.373Z,976.7
2017-10-22T04:18:46.325Z,976.6
2017-10-22T04:19:48.351Z,976.6
2017-10-22T04:20:50.268Z,976.7
2017-10-22T04:21:52.117Z,976.7
2017-10-22T04:22:54.142Z,976.7
2017-10-22T04:23:56.049Z,976.7
2017-10-22T04:24:58.024Z,976.7
2017-10-22T04:25:59.968Z,976.7
2017-10-22T04:27:01.908Z,976.7
2017-10-22T04:28:03.817Z,976.7
2017-10-22T04:29:05.681Z,976.7
2017-10-22T04:30:07.592Z,976.8
2017-10-22T04:31:09.469Z,976.7
2017-10-22T04:32:11.377Z,976.7
2017-10-22T04:33:13.363Z,976.7
2017-10-22T04:34:15.348Z,976.7
2017-10-22T04:35:17.257Z,976.8
2017-10-22T04:36:19.162Z,976.8
2017-10-22T04:37:21.028Z,976.7
2017-10-22T04:38:22.938Z,976.7
2017-10-22T04:39:24.852Z,976.7
2017-10-22T04:40:26.775Z,976.7
2017-10-22T04:41:28.725Z,976.7
2017-10-22T04:42:30.694Z,976.7
2017-10-22T04:43:32.631Z,976.7
2017-10-22T04:44:34.549Z,976.7
2017-10-22T04:45:36.462Z,976.7
2017-10-22T04:46:38.412Z,976.7
2017-10-22T04:47:40.360Z,976.7
2017-10-22T04:48:42.368Z,976.7
2017-10-22T04:49:44.279Z,976.6
2017-10-22T04:50:46.263Z,976.7
2017-10-22T04:51:48.166Z,976.7
2017-10-22T04:52:50.067Z,976.8
2017-10-22T04:53:52.063Z,976.7
2017-10-22T04:54:53.968Z,976.7
2017-10-22T04:55:55.867Z,976.6
2017-10-22T04:56:57.743Z,976.8
2017-10-22T04:57:59.621Z,976.7
2017-10-22T04:59:01.574Z,976.7
2017-10-22T05:00:03.592Z,976.6
2017-10-22T05:01:05.553Z,976.7
2017-10-22T05:02:07.481Z,976.7
2017-10-22T05:03:09.372Z,976.6
2017-10-22T05:04:11.347Z,976.7
2017-10-22T05:05:13.326Z,976.7
2017-10-22T05:06:15.206Z,976.6
2017-10-22T05:07:17.081Z,976.6
2017-10-22T05:08:19.009Z,976.6
2017-10-22T05:09:21.374Z,976.5
2017-10-22T05:10:23.304Z,976.5
2017-10-22T05:11:25.187Z,976.7
2017-10-22T05:12:27.099Z,976.5
2017-10-22T05:13:28.972Z,976.4
2017-10-22T05:14:30.991Z,976.4
2017-10-22T05:15:32.903Z,976.5
2017-10-22T05:16:34.815Z,976.4
2017-10-22T05:17:36.713Z,976.3
2017-10-22T05:18:38.632Z,976.3
2017-10-22T05:19:40.522Z,976.3
2017-10-22T05:20:42.453Z,976.3
2017-10-22T05:21:44.431Z,976.2
2017-10-22T05:22:46.339Z,976.3
2017-10-22T05:23:48.231Z,976.3
2017-10-22T05:24:50.290Z,976.3
2017-10-22T05:25:52.212Z,976.3
2017-10-22T05:26:54.167Z,976.3
2017-10-22T05:27:56.114Z,976.3
2017-10-22T05:28:58.007Z,976.3
2017-10-22T05:30:00.370Z,976.3
2017-10-22T05:31:02.307Z,976.3
2017-10-22T05:32:04.232Z,976.2
2017-10-22T05:33:06.066Z,976.2
2017-10-22T05:34:08.032Z,976.3
2017-10-22T05:35:10.289Z,976.4
2017-10-22T05:36:12.182Z,976.3
2017-10-22T05:37:14.086Z,976.3
2017-10-22T05:38:16.038Z,976.3
2017-10-22T05:39:24.031Z,976.3
2017-10-22T05:40:26.336Z,976.3
2017-10-22T05:41:28.252Z,976.3
2017-10-22T05:42:30.198Z,976.2
2017-10-22T05:43:32.051Z,976.2
2017-10-22T05:44:33.959Z,976.3
2017-10-22T05:45:35.898Z,976.2
2017-10-22T05:46:37.769Z,976.3
2017-10-22T05:47:39.663Z,976.3
2017-10-22T05:48:41.578Z,976.3
2017-10-22T05:49:43.508Z,976.3
2017-10-22T05:50:45.666Z,976.3
2017-10-22T05:51:47.620Z,976.3
2017-10-22T05:52:49.482Z,976.2
2017-10-22T05:53:51.452Z,976.3
2017-10-22T05:54:53.468Z,976.3
2017-10-22T05:55:55.696Z,976.3
2017-10-22T05:56:57.655Z,976.3
2017-10-22T05:57:59.607Z,976.3
2017-10-22T05:59:01.537Z,976.3
2017-10-22T06:00:03.455Z,976.3
2017-10-22T06:01:05.370Z,976.3
2017-10-22T06:02:07.391Z,976.3
2017-10-22T06:03:09.290Z,976.3
2017-10-22T06:04:11.177Z,976.3
2017-10-22T06:05:13.209Z,976.2
2017-10-22T06:06:15.288Z,976.3
2017-10-22T06:07:17.240Z,976.3
2017-10-22T06:08:19.193Z,976.2
2017-10-22T06:09:21.175Z,976.3
2017-10-22T06:10:23.106Z,976.2
2017-10-22T06:11:25.107Z,976.2
2017-10-22T06:12:27.073Z,976.2
2017-10-22T06:13:29.015Z,976.2
2017-10-22T06:14:30.951Z,976.2
2017-10-22T06:15:32.836Z,976.2
2017-10-22T06:16:34.933Z,976.2
2017-10-22T06:17:36.915Z,976.2
2017-10-22T06:18:38.857Z,976.1
2017-10-22T06:19:40.782Z,976.3
2017-10-22T06:20:42.750Z,976.2
2017-10-22T06:21:44.725Z,976.2
2017-10-22T06:22:46.706Z,976.2
2017-10-22T06:23:48.647Z,976.2
2017-10-22T06:24:50.597Z,976.3
2017-10-22T06:25:52.452Z,976.2
2017-10-22T06:26:54.368Z,976.2
2017-10-22T06:27:56.408Z,976.3
2017-10-22T06:28:58.380Z,976.3
2017-10-22T06:30:00.336Z,976.2
2017-10-22T06:31:02.411Z,976.2
2017-10-22T06:32:04.703Z,976.2
2017-10-22T06:33:06.572Z,976.2
2017-10-22T06:34:08.502Z,976.3
2017-10-22T06:35:10.459Z,976.3
2017-10-22T06:36:12.368Z,976.2
2017-10-22T06:37:14.364Z,976.3
2017-10-22T06:38:16.296Z,976.3
2017-10-22T06:39:18.265Z,976.2
2017-10-22T06:40:20.260Z,976.2
2017-10-22T06:41:22.239Z,976.2
2017-10-22T06:42:24.188Z,976.3
2017-10-22T06:43:26.237Z,976.3
2017-10-22T06:44:28.102Z,976.3
2017-10-22T06:45:30.054Z,976.2
2017-10-22T06:46:32.041Z,976.4
2017-10-22T06:47:34.348Z,976.3
2017-10-22T06:48:36.186Z,976.3
2017-10-22T06:49:38.226Z,976.3
2017-10-22T06:50:40.084Z,976.2
2017-10-22T06:51:41.960Z,976.3
2017-10-22T06:52:43.835Z,976.4
2017-10-22T06:53:45.835Z,976.2
2017-10-22T06:54:47.816Z,976.2
2017-10-22T06:55:49.732Z,976.2
2017-10-22T06:56:51.733Z,976.2
2017-10-22T06:57:53.657Z,976.1
2017-10-22T06:58:55.669Z,976.3
2017-10-22T06:59:57.611Z,976.1
2017-10-22T07:00:59.572Z,976.2
2017-10-22T07:02:01.480Z,976.1
2017-10-22T07:03:03.499Z,976.2
2017-10-22T07:04:05.573Z,976.3
2017-10-22T07:05:07.509Z,976.2
2017-10-22T07:06:09.457Z,976.1
2017-10-22T07:07:11.473Z,976.2
2017-10-22T07:08:13.745Z,976.2
2017-10-22T07:09:15.652Z,976.1
2017-10-22T07:10:17.632Z,976.2
2017-10-22T07:11:19.584Z,976.2
2017-10-22T07:12:21.585Z,976.1
2017-10-22T07:13:23.553Z,976.3
2017-10-22T07:14:25.482Z,976.2
2017-10-22T07:15:27.451Z,976.1
2017-10-22T07:16:29.365Z,976.2
2017-10-22T07:17:31.319Z,976.3
2017-10-22T07:18:33.336Z,976.2
2017-10-22T07:19:35.294Z,976.2
2017-10-22T07:20:37.217Z,976.2
2017-10-22T07:21:39.136Z,976.1
2017-10-22T07:22:41.082Z,976.2
2017-10-22T07:23:43.118Z,976.1
2017-10-22T07:24:45.099Z,976.2
2017-10-22T07:25:47.128Z,976.1
2017-10-22T07:26:49.050Z,976.2
2017-10-22T07:27:51.034Z,976.1
2017-10-22T07:28:52.983Z,976.1
2017-10-22T07:29:54.955Z,976
2017-10-22T07:30:56.925Z,976.1
2017-10-22T07:31:58.958Z,976.1
2017-10-22T07:33:00.931Z,976.1
2017-10-22T07:34:03.009Z,976.1
2017-10-22T07:35:04.954Z,976
2017-10-22T07:36:06.892Z,976
2017-10-22T07:37:08.827Z,976
2017-10-22T07:38:10.796Z,976
2017-10-22T07:39:12.785Z,975.9
2017-10-22T07:40:14.763Z,976
2017-10-22T07:41:16.685Z,976.1
2017-10-22T07:42:18.638Z,976
2017-10-22T07:43:20.530Z,976
2017-10-22T07:44:22.621Z,976
2017-10-22T07:45:24.520Z,976.1
2017-10-22T07:46:26.489Z,976
2017-10-22T07:47:28.483Z,976
2017-10-22T07:48:30.458Z,976.1
2017-10-22T07:49:32.513Z,976
2017-10-22T07:50:34.471Z,975.9
2017-10-22T07:51:36.461Z,976
2017-10-22T07:52:38.495Z,976
2017-10-22T07:53:40.439Z,976.1
2017-10-22T07:54:42.461Z,976
2017-10-22T07:55:44.457Z,976.1
2017-10-22T07:56:46.518Z,975.9
2017-10-22T07:57:48.572Z,976
2017-10-22T07:58:50.557Z,976
2017-10-22T07:59:52.645Z,975.9
2017-10-22T08:00:54.634Z,976
2017-10-22T08:01:56.933Z,976
2017-10-22T08:02:59.022Z,976.1
2017-10-22T08:04:01.004Z,976.1
2017-10-22T08:05:03.266Z,976
2017-10-22T08:06:05.224Z,976
2017-10-22T08:07:07.212Z,976
2017-10-22T08:08:09.094Z,976
2017-10-22T08:09:11.038Z,975.9
2017-10-22T08:10:13.032Z,976
2017-10-22T08:11:14.980Z,975.9
2017-10-22T08:12:16.982Z,975.9
2017-10-22T08:13:18.966Z,975.9
2017-10-22T08:14:20.923Z,975.9
2017-10-22T08:15:23.153Z,976.1
2017-10-22T08:16:25.050Z,976
2017-10-22T08:17:26.992Z,975.9
2017-10-22T08:18:28.985Z,975.9
2017-10-22T08:19:31.039Z,976
2017-10-22T08:20:33.042Z,976
2017-10-22T08:21:35.056Z,975.9
2017-10-22T08:22:37.192Z,976
2017-10-22T08:23:39.294Z,975.8
2017-10-22T08:24:41.238Z,976.1
2017-10-22T08:25:43.378Z,975.9
2017-10-22T08:26:45.413Z,976
2017-10-22T08:27:47.415Z,976
2017-10-22T08:28:49.311Z,975.9
2017-10-22T08:29:51.339Z,975.9
2017-10-22T08:30:53.347Z,976
2017-10-22T08:31:55.432Z,976
2017-10-22T08:32:57.547Z,975.8
2017-10-22T08:33:59.511Z,975.8
2017-10-22T08:35:01.482Z,975.8
2017-10-22T08:36:03.432Z,975.9
2017-10-22T08:37:05.542Z,975.9
2017-10-22T08:38:07.517Z,975.9
2017-10-22T08:39:09.492Z,976.1
2017-10-22T08:40:11.366Z,975.9
2017-10-22T08:41:13.738Z,975.8
2017-10-22T08:42:15.711Z,976
2017-10-22T08:43:17.654Z,975.9
2017-10-22T08:44:19.651Z,975.9
2017-10-22T08:45:21.772Z,975.9
2017-10-22T08:46:23.729Z,975.9
2017-10-22T08:47:25.791Z,975.9
2017-10-22T08:48:27.913Z,975.8
2017-10-22T08:49:29.905Z,975.9
2017-10-22T08:50:31.993Z,976.1
2017-10-22T08:51:34.112Z,976
2017-10-22T08:52:36.054Z,976
2017-10-22T08:53:38.103Z,976
2017-10-22T08:54:40.092Z,976.1
2017-10-22T08:55:42.111Z,976
2017-10-22T08:56:44.153Z,976.1
2017-10-22T08:57:46.116Z,976
2017-10-22T08:58:48.094Z,976
2017-10-22T08:59:50.212Z,976.1
2017-10-22T09:00:52.179Z,976.2
2017-10-22T09:01:54.555Z,976.1
2017-10-22T09:02:56.554Z,976
2017-10-22T09:03:58.541Z,976.1
2017-10-22T09:05:00.497Z,976.1
2017-10-22T09:06:02.452Z,976.2
2017-10-22T09:07:04.368Z,976.2
2017-10-22T09:08:06.611Z,976.1
2017-10-22T09:09:08.606Z,976.1
2017-10-22T09:10:10.732Z,976.1
2017-10-22T09:11:12.659Z,976.2
2017-10-22T09:12:14.662Z,976.1
2017-10-22T09:13:16.637Z,976.1
2017-10-22T09:14:18.619Z,976.1
2017-10-22T09:15:20.615Z,976.1
2017-10-22T09:16:22.598Z,976
2017-10-22T09:17:24.943Z,976
2017-10-22T09:18:26.974Z,976.1
2017-10-22T09:19:28.967Z,976
2017-10-22T09:20:31.012Z,976
2017-10-22T09:21:33.029Z,976
2017-10-22T09:22:35.079Z,976
2017-10-22T09:23:37.066Z,976.1
2017-10-22T09:24:39.072Z,976
2017-10-22T09:25:41.312Z,976
2017-10-22T09:26:43.467Z,976
2017-10-22T09:27:45.742Z,975.9
2017-10-22T09:28:48.287Z,976
2017-10-22T09:29:50.305Z,976
2017-10-22T09:30:52.276Z,976
2017-10-22T09:31:54.277Z,976
2017-10-22T09:32:56.387Z,976
2017-10-22T09:33:58.565Z,976.1
2017-10-22T09:35:00.538Z,976.1
2017-10-22T09:36:02.595Z,976
2017-10-22T09:37:04.533Z,975.9
2017-10-22T09:38:06.589Z,975.9
2017-10-22T09:39:08.643Z,975.9
2017-10-22T09:40:10.768Z,976
2017-10-22T09:41:12.899Z,975.9
2017-10-22T09:42:14.988Z,975.9
2017-10-22T09:43:17.194Z,976
2017-10-22T09:44:19.363Z,975.9
2017-10-22T09:45:21.470Z,976
2017-10-22T09:46:23.590Z,975.9
2017-10-22T09:47:25.788Z,975.8
2017-10-22T09:48:27.788Z,975.9
2017-10-22T09:49:29.773Z,976.1
2017-10-22T09:50:31.793Z,975.8
2017-10-22T09:51:33.869Z,975.9
2017-10-22T09:52:36.023Z,976
2017-10-22T09:53:38.252Z,975.9
2017-10-22T09:54:40.276Z,975.9
2017-10-22T09:55:42.381Z,976
2017-10-22T09:56:44.425Z,975.9
2017-10-22T09:57:46.389Z,975.9
2017-10-22T09:58:48.421Z,975.9
2017-10-22T09:59:50.460Z,975.9
2017-10-22T10:00:52.506Z,975.9
2017-10-22T10:01:54.452Z,975.9
2017-10-22T10:02:56.444Z,976
2017-10-22T10:03:58.490Z,975.8
2017-10-22T10:05:00.495Z,975.8
2017-10-22T10:06:02.454Z,975.9
2017-10-22T10:07:04.490Z,975.9
2017-10-22T10:08:06.493Z,975.9
2017-10-22T10:09:08.768Z,975.9
2017-10-22T10:10:10.732Z,976
2017-10-22T10:11:12.722Z,975.9
2017-10-22T10:12:14.712Z,975.9
2017-10-22T10:13:16.685Z,976
2017-10-22T10:14:18.940Z,976
2017-10-22T10:15:20.907Z,975.9
2017-10-22T10:16:22.919Z,975.9
2017-10-22T10:17:24.885Z,976
2017-10-22T10:18:26.811Z,975.9
2017-10-22T10:19:29.146Z,975.9
2017-10-22T10:20:31.261Z,976
2017-10-22T10:21:33.330Z,976
2017-10-22T10:22:35.291Z,976
2017-10-22T10:23:37.282Z,976
2017-10-22T10:24:39.284Z,975.9
2017-10-22T10:25:41.297Z,975.9
2017-10-22T10:26:43.215Z,975.9
2017-10-22T10:27:45.147Z,975.9
2017-10-22T10:28:47.215Z,975.8
2017-10-22T10:29:49.289Z,976
2017-10-22T10:30:51.570Z,975.9
2017-10-22T10:31:53.559Z,975.9
2017-10-22T10:32:55.558Z,975.9
2017-10-22T10:33:57.562Z,976
2017-10-22T10:34:59.790Z,975.9
2017-10-22T10:36:01.973Z,975.9
2017-10-22T10:37:03.919Z,975.9
2017-10-22T10:38:05.871Z,975.9
2017-10-22T10:39:07.804Z,975.9
2017-10-22T10:40:09.959Z,975.8
2017-10-22T10:41:11.901Z,975.8
2017-10-22T10:42:13.952Z,976
2017-10-22T10:43:15.877Z,976
2017-10-22T10:44:18.000Z,975.9
2017-10-22T10:45:20.672Z,975.9
2017-10-22T10:46:22.737Z,975.9
2017-10-22T10:47:24.689Z,976
2017-10-22T10:48:26.684Z,975.9
2017-10-22T10:49:28.634Z,975.9
2017-10-22T10:50:30.700Z,976
2017-10-22T10:51:32.722Z,976
2017-10-22T10:52:34.715Z,976
2017-10-22T10:53:36.689Z,976
2017-10-22T10:54:38.755Z,976
2017-10-22T10:55:40.989Z,976.1
2017-10-22T10:56:43.102Z,976.1
2017-10-22T10:57:45.235Z,976
2017-10-22T10:58:47.257Z,976
2017-10-22T10:59:49.272Z,976
2017-10-22T11:00:51.501Z,976
2017-10-22T11:01:53.474Z,976
2017-10-22T11:02:55.454Z,975.9
2017-10-22T11:03:57.477Z,976
2017-10-22T11:04:59.449Z,976
2017-10-22T11:06:01.368Z,976
2017-10-22T11:07:03.333Z,976
2017-10-22T11:08:05.342Z,976
2017-10-22T11:09:07.328Z,976
2017-10-22T11:10:09.376Z,976
2017-10-22T11:11:11.440Z,976
2017-10-22T11:12:13.741Z,976.1
2017-10-22T11:13:15.874Z,976
2017-10-22T11:14:17.868Z,976
2017-10-22T11:15:19.828Z,976.1
2017-10-22T11:16:22.189Z,976
2017-10-22T11:17:24.165Z,976.1
2017-10-22T11:18:26.127Z,976.1
2017-10-22T11:19:28.451Z,976
2017-10-22T11:20:30.451Z,976
2017-10-22T11:21:32.574Z,976
2017-10-22T11:22:34.659Z,976
2017-10-22T11:23:36.669Z,976.1
2017-10-22T11:24:38.687Z,976.1
2017-10-22T11:25:40.794Z,976.1
2017-10-22T11:26:47.745Z,976.1
2017-10-22T11:27:50.058Z,976
2017-10-22T11:28:52.408Z,976.1
2017-10-22T11:29:54.360Z,976
2017-10-22T11:30:56.367Z,976
2017-10-22T11:31:58.429Z,976
2017-10-22T11:33:00.532Z,976
2017-10-22T11:34:02.605Z,975.9
2017-10-22T11:35:04.990Z,976
2017-10-22T11:36:06.955Z,975.9
2017-10-22T11:37:08.960Z,976
2017-10-22T11:38:10.986Z,976.1
2017-10-22T11:39:12.980Z,975.9
2017-10-22T11:40:15.024Z,976
2017-10-22T11:41:17.050Z,976
2017-10-22T11:42:19.116Z,976
2017-10-22T11:43:21.173Z,976
2017-10-22T11:44:23.761Z,975.9
2017-10-22T11:45:26.030Z,976
2017-10-22T11:46:28.026Z,976
2017-10-22T11:47:30.377Z,975.9
2017-10-22T11:48:32.377Z,975.9
2017-10-22T11:49:34.464Z,976
2017-10-22T11:50:36.643Z,975.9
2017-10-22T11:51:38.753Z,975.9
2017-10-22T11:52:40.840Z,975.9
2017-10-22T11:53:42.933Z,975.9
2017-10-22T11:54:44.927Z,975.9
2017-10-22T11:55:47.062Z,975.9
2017-10-22T11:56:49.121Z,975.9
2017-10-22T11:57:51.325Z,975.9
2017-10-22T11:58:53.411Z,975.9
2017-10-22T11:59:55.505Z,975.9
2017-10-22T12:00:57.698Z,975.9
2017-10-22T12:01:59.964Z,975.9
2017-10-22T12:03:02.141Z,975.9
2017-10-22T12:04:04.220Z,975.8
2017-10-22T12:05:06.295Z,976
2017-10-22T12:06:08.352Z,975.8
2017-10-22T12:07:10.688Z,975.9
2017-10-22T12:08:13.201Z,975.8
2017-10-22T12:09:15.175Z,975.9
2017-10-22T12:10:17.227Z,975.9
2017-10-22T12:11:19.289Z,975.9
2017-10-22T12:12:21.300Z,975.9
2017-10-22T12:13:23.677Z,975.8
2017-10-22T12:14:25.765Z,975.9
2017-10-22T12:15:27.756Z,975.9
2017-10-22T12:16:29.807Z,975.9
2017-10-22T12:17:31.790Z,975.9
2017-10-22T12:18:33.851Z,975.8
2017-10-22T12:19:35.817Z,975.8
2017-10-22T12:20:37.871Z,975.8
2017-10-22T12:21:40.040Z,975.7
2017-10-22T12:22:42.079Z,975.8
2017-10-22T12:23:44.509Z,975.8
2017-10-22T12:24:46.587Z,975.8
2017-10-22T12:25:48.515Z,975.8
2017-10-22T12:26:50.621Z,975.9
2017-10-22T12:27:52.700Z,975.7
2017-10-22T12:28:54.972Z,975.8
2017-10-22T12:29:56.996Z,975.9
2017-10-22T12:30:59.021Z,975.8
2017-10-22T12:32:01.040Z,975.8
2017-10-22T12:33:02.966Z,975.9
2017-10-22T12:34:05.039Z,975.9
2017-10-22T12:35:06.979Z,975.9
2017-10-22T12:36:09.045Z,975.9
2017-10-22T12:37:11.082Z,975.8
2017-10-22T12:38:13.671Z,975.8
2017-10-22T12:39:16.099Z,975.8
2017-10-22T12:40:18.127Z,975.9
2017-10-22T12:41:20.197Z,976
2017-10-22T12:42:22.159Z,975.8
2017-10-22T12:43:24.138Z,975.9
2017-10-22T12:44:26.392Z,975.9
2017-10-22T12:45:28.424Z,975.8
2017-10-22T12:46:30.379Z,975.8
2017-10-22T12:47:32.486Z,975.8
2017-10-22T12:48:34.568Z,975.9
2017-10-22T12:49:36.613Z,975.8
2017-10-22T12:50:38.679Z,975.9
2017-10-22T12:51:40.674Z,975.9
2017-10-22T12:52:42.741Z,975.9
2017-10-22T12:53:44.810Z,975.8
2017-10-22T12:54:46.857Z,975.8
2017-10-22T12:55:49.045Z,975.9
2017-10-22T12:56:51.054Z,975.9
2017-10-22T12:57:53.126Z,975.9
2017-10-22T12:58:55.338Z,976
2017-10-22T12:59:57.343Z,975.8
2017-10-22T13:00:59.387Z,975.8
2017-10-22T13:02:01.387Z,975.8
2017-10-22T13:03:03.371Z,975.8
2017-10-22T13:04:05.430Z,976
2017-10-22T13:05:07.579Z,975.8
2017-10-22T13:06:09.584Z,975.8
2017-10-22T13:07:11.601Z,975.8
2017-10-22T13:08:13.693Z,975.9
2017-10-22T13:09:15.805Z,975.8
2017-10-22T13:10:18.089Z,975.8
2017-10-22T13:11:20.066Z,975.8
2017-10-22T13:12:22.034Z,975.8
2017-10-22T13:13:24.141Z,975.9
2017-10-22T13:14:26.331Z,975.8
2017-10-22T13:15:28.449Z,975.8
2017-10-22T13:16:30.420Z,975.9
2017-10-22T13:17:32.441Z,975.9
2017-10-22T13:18:34.467Z,975.8
2017-10-22T13:19:36.553Z,975.8
2017-10-22T13:20:38.642Z,975.9
2017-10-22T13:21:40.725Z,975.9
2017-10-22T13:22:42.706Z,975.9
2017-10-22T13:23:44.793Z,975.9
2017-10-22T13:24:46.815Z,975.9
2017-10-22T13:25:48.943Z,975.9
2017-10-22T13:26:50.910Z,975.8